Time;durP1;ratioP1;P1;durP2;ratioP2;P2;SDS_P1;SDS_P2;PMS_P1;PMS_P2;Temp;Humidity;BMP_temperature;BMP_pressure;BME280_temperature;BME280_humidity;BME280_pressure;Samples;Min_cycle;Max_cycle;Signal;HPM_P1;HPM_P2
2022/08/15 00:00:06;;;;;;;0.00;0.00;;;;;;;;;;5051961;28;20106;-59
2022/08/15 00:02:32;;;;;;;0.00;0.00;;;;;;;;;;5051853;28;20024;-59
2022/08/15 00:04:57;;;;;;;0.00;0.00;;;;;;;;;;5052453;28;20024;-59
2022/08/15 00:07:23;;;;;;;0.00;0.00;;;;;;;;;;5051929;28;20047;-59
2022/08/15 00:09:48;;;;;;;0.00;0.00;;;;;;;;;;5052294;28;20016;-58
2022/08/15 00:12:13;;;;;;;0.00;0.00;;;;;;;;;;5052565;28;20023;-59
2022/08/15 00:14:38;;;;;;;0.00;0.00;;;;;;;;;;5051695;28;20027;-59
2022/08/15 00:17:09;;;;;;;0.00;0.00;;;;;;;;;;5051927;28;20025;-59
2022/08/15 00:19:36;;;;;;;0.00;0.00;;;;;;;;;;5051085;28;20043;-60
2022/08/15 00:22:04;;;;;;;0.00;0.00;;;;;;;;;;5051997;28;20440;-58
2022/08/15 00:24:30;;;;;;;0.00;0.00;;;;;;;;;;5051429;28;20029;-58
2022/08/15 00:26:56;;;;;;;0.00;0.00;;;;;;;;;;5051988;28;20493;-58
2022/08/15 00:29:23;;;;;;;0.45;0.45;;;;;;;;;;5051370;28;20024;-58
2022/08/15 00:31:49;;;;;;;0.47;0.30;;;;;;;;;;5051917;28;20016;-59
2022/08/15 00:34:16;;;;;;;0.00;0.00;;;;;;;;;;5050683;28;20091;-59
2022/08/15 00:36:42;;;;;;;0.10;0.10;;;;;;;;;;5051334;28;20024;-59
2022/08/15 00:39:08;;;;;;;0.15;0.15;;;;;;;;;;5051087;28;20025;-58
2022/08/15 00:41:39;;;;;;;0.00;0.00;;;;;;;;;;5051192;28;20052;-59
2022/08/15 00:44:06;;;;;;;0.00;0.00;;;;;;;;;;5051977;28;20422;-59
2022/08/15 00:46:32;;;;;;;0.00;0.00;;;;;;;;;;5050179;28;20052;-59
2022/08/15 00:48:57;;;;;;;0.00;0.00;;;;;;;;;;5051643;28;20045;-59
2022/08/15 00:51:34;;;;;;;0.00;0.00;;;;;;;;;;5051403;28;20044;-60
2022/08/15 00:54:02;;;;;;;0.00;0.00;;;;;;;;;;5051836;28;20458;-60
2022/08/15 00:56:30;;;;;;;0.00;0.00;;;;;;;;;;5050233;28;20040;-57
2022/08/15 00:58:55;;;;;;;0.00;0.00;;;;;;;;;;5051316;28;20041;-58
2022/08/15 01:01:21;;;;;;;0.00;0.00;;;;;;;;;;5050581;28;20024;-59
2022/08/15 01:03:47;;;;;;;0.00;0.00;;;;;;;;;;5051359;28;20489;-60
2022/08/15 01:06:13;;;;;;;0.00;0.00;;;;;;;;;;5051341;28;20021;-59
2022/08/15 01:08:41;;;;;;;0.00;0.00;;;;;;;;;;5051071;28;20013;-60
2022/08/15 01:11:12;;;;;;;0.00;0.00;;;;;;;;;;5051137;28;20029;-58
2022/08/15 01:13:38;;;;;;;0.00;0.00;;;;;;;;;;5049993;28;20025;-58
2022/08/15 01:16:03;;;;;;;0.00;0.00;;;;;;;;;;5049982;28;20098;-58
2022/08/15 01:18:28;;;;;;;0.00;0.00;;;;;;;;;;5050580;28;20028;-58
2022/08/15 01:20:54;;;;;;;0.00;0.00;;;;;;;;;;5050638;28;20017;-59
2022/08/15 01:23:26;;;;;;;0.00;0.00;;;;;;;;;;5050415;28;20017;-60
2022/08/15 01:25:57;;;;;;;0.10;0.10;;;;;;;;;;5051381;28;20036;-60
2022/08/15 01:28:27;;;;;;;0.00;0.00;;;;;;;;;;5050738;28;20025;-59
2022/08/15 01:31:12;;;;;;;0.00;0.00;;;;;;;;;;5051161;28;20055;-59
2022/08/15 01:33:42;;;;;;;0.00;0.00;;;;;;;;;;5049911;28;20033;-58
2022/08/15 01:36:08;;;;;;;0.10;0.10;;;;;;;;;;5050851;28;20474;-59
2022/08/15 01:38:36;;;;;;;0.00;0.00;;;;;;;;;;5050443;28;20364;-60
2022/08/15 01:41:28;;;;;;;0.00;0.00;;;;;;;;;;5050611;28;20017;-59
2022/08/15 01:44:05;;;;;;;0.00;0.00;;;;;;;;;;5046742;28;20029;-58
2022/08/15 01:46:35;;;;;;;0.00;0.00;;;;;;;;;;5049530;28;20086;-58
2022/08/15 01:49:08;;;;;;;0.00;0.00;;;;;;;;;;5050463;28;20032;-59
2022/08/15 01:51:33;;;;;;;0.00;0.00;;;;;;;;;;5049943;28;20845;-57
2022/08/15 01:54:05;;;;;;;0.00;0.00;;;;;;;;;;5048260;28;20029;-57
2022/08/15 01:56:32;;;;;;;0.00;0.00;;;;;;;;;;5048187;28;20049;-58
2022/08/15 01:58:58;;;;;;;0.00;0.00;;;;;;;;;;5048650;28;20505;-58
2022/08/15 02:01:42;;;;;;;0.00;0.00;;;;;;;;;;5050044;28;20036;-58
2022/08/15 02:04:07;;;;;;;0.00;0.00;;;;;;;;;;5050328;28;20017;-58
2022/08/15 02:06:33;;;;;;;0.00;0.00;;;;;;;;;;5049921;28;20082;-59
2022/08/15 02:09:00;;;;;;;0.00;0.00;;;;;;;;;;5049954;28;20466;-59
2022/08/15 02:11:26;;;;;;;0.00;0.00;;;;;;;;;;5049415;28;20020;-57
2022/08/15 02:13:54;;;;;;;0.00;0.00;;;;;;;;;;5047912;28;20494;-59
2022/08/15 02:16:20;;;;;;;0.00;0.00;;;;;;;;;;5049356;28;20108;-60
2022/08/15 02:18:45;;;;;;;0.00;0.00;;;;;;;;;;5049198;28;20163;-60
2022/08/15 02:21:10;;;;;;;0.00;0.00;;;;;;;;;;5049960;28;20474;-58
2022/08/15 02:23:36;;;;;;;0.10;0.10;;;;;;;;;;5049040;28;20025;-58
2022/08/15 02:26:03;;;;;;;0.00;0.00;;;;;;;;;;5049581;28;20021;-58
2022/08/15 02:28:28;;;;;;;0.00;0.00;;;;;;;;;;5049026;28;20038;-59
2022/08/15 02:30:54;;;;;;;0.00;0.00;;;;;;;;;;5049564;28;20025;-57
2022/08/15 02:33:20;;;;;;;0.00;0.00;;;;;;;;;;5049288;28;20031;-59
2022/08/15 02:35:45;;;;;;;0.00;0.00;;;;;;;;;;5048907;28;20025;-59
2022/08/15 02:38:10;;;;;;;0.00;0.00;;;;;;;;;;5049378;28;20339;-60
2022/08/15 02:40:35;;;;;;;0.00;0.00;;;;;;;;;;5048987;28;20377;-59
2022/08/15 02:43:03;;;;;;;0.00;0.00;;;;;;;;;;5048848;28;20028;-59
2022/08/15 02:45:31;;;;;;;0.00;0.00;;;;;;;;;;5049058;28;20031;-58
2022/08/15 02:47:58;;;;;;;0.00;0.00;;;;;;;;;;5049561;28;20017;-58
2022/08/15 02:50:23;;;;;;;0.00;0.00;;;;;;;;;;5048957;28;20017;-58
2022/08/15 02:52:49;;;;;;;0.00;0.00;;;;;;;;;;5049230;28;20083;-61
2022/08/15 02:55:15;;;;;;;0.00;0.00;;;;;;;;;;5048989;28;20041;-59
2022/08/15 02:57:40;;;;;;;0.00;0.00;;;;;;;;;;5048878;28;20029;-58
2022/08/15 03:00:12;;;;;;;0.03;0.03;;;;;;;;;;5049037;28;20032;-59
2022/08/15 03:02:57;;;;;;;0.00;0.00;;;;;;;;;;5048741;28;20478;-59
2022/08/15 03:05:23;;;;;;;0.00;0.00;;;;;;;;;;5048511;28;20090;-60
2022/08/15 03:07:48;;;;;;;2.78;0.65;;;;;;;;;;5049100;28;20078;-59
2022/08/15 03:10:14;;;;;;;0.00;0.00;;;;;;;;;;5048182;28;20135;-59
2022/08/15 03:12:54;;;;;;;0.00;0.00;;;;;;;;;;5048712;28;20096;-59
2022/08/15 03:15:37;;;;;;;0.00;0.00;;;;;;;;;;5049319;28;20029;-60
2022/08/15 03:18:02;;;;;;;0.20;0.20;;;;;;;;;;5049102;28;20112;-60
2022/08/15 03:20:28;;;;;;;0.00;0.00;;;;;;;;;;5048454;28;20137;-58
2022/08/15 03:22:53;;;;;;;0.00;0.00;;;;;;;;;;5048921;28;20033;-60
2022/08/15 03:25:20;;;;;;;0.00;0.00;;;;;;;;;;5051825;28;20461;-61
2022/08/15 03:27:45;;;;;;;0.00;0.00;;;;;;;;;;5052522;28;20108;-60
2022/08/15 03:30:11;;;;;;;0.00;0.00;;;;;;;;;;5052833;28;20108;-59
2022/08/15 03:33:03;;;;;;;0.00;0.00;;;;;;;;;;5052258;28;20086;-59
2022/08/15 03:35:30;;;;;;;0.00;0.00;;;;;;;;;;5051023;28;20073;-59
2022/08/15 03:37:59;;;;;;;0.00;0.00;;;;;;;;;;5052813;28;20033;-59
2022/08/15 03:40:24;;;;;;;0.00;0.00;;;;;;;;;;5051991;28;20431;-60
2022/08/15 03:42:51;;;;;;;0.00;0.00;;;;;;;;;;5052731;28;20060;-59
2022/08/15 03:45:17;;;;;;;0.00;0.00;;;;;;;;;;5052433;28;20409;-59
2022/08/15 03:47:42;;;;;;;0.20;0.20;;;;;;;;;;5052357;28;20017;-59
2022/08/15 03:50:07;;;;;;;0.00;0.00;;;;;;;;;;5052401;28;20020;-59
2022/08/15 03:52:33;;;;;;;0.00;0.00;;;;;;;;;;5052265;28;20025;-58
2022/08/15 03:55:04;;;;;;;0.00;0.00;;;;;;;;;;5051952;28;20044;-59
2022/08/15 03:57:29;;;;;;;0.00;0.00;;;;;;;;;;5052066;28;20416;-59
2022/08/15 03:59:54;;;;;;;0.10;0.10;;;;;;;;;;5052409;28;20158;-59
2022/08/15 04:02:24;;;;;;;0.30;0.30;;;;;;;;;;5052712;28;20025;-59
2022/08/15 04:04:49;;;;;;;3.10;1.73;;;;;;;;;;5051670;28;20525;-58
2022/08/15 04:07:16;;;;;;;0.60;0.60;;;;;;;;;;5052499;28;20021;-59
2022/08/15 04:09:41;;;;;;;0.20;0.20;;;;;;;;;;5050558;28;20031;-59
2022/08/15 04:12:08;;;;;;;0.00;0.00;;;;;;;;;;5052400;28;20021;-59
2022/08/15 04:14:34;;;;;;;0.68;0.68;;;;;;;;;;5051609;28;20481;-60
2022/08/15 04:17:00;;;;;;;0.00;0.00;;;;;;;;;;5052061;28;20027;-60
2022/08/15 04:19:25;;;;;;;0.10;0.10;;;;;;;;;;5051762;28;20017;-60
2022/08/15 04:21:50;;;;;;;0.00;0.00;;;;;;;;;;5051396;28;20037;-58
2022/08/15 04:24:16;;;;;;;0.00;0.00;;;;;;;;;;5051834;28;20067;-58
2022/08/15 04:26:41;;;;;;;0.00;0.00;;;;;;;;;;5051722;28;20033;-60
2022/08/15 04:29:07;;;;;;;0.20;0.20;;;;;;;;;;5051492;28;20036;-60
2022/08/15 04:31:32;;;;;;;2.38;2.28;;;;;;;;;;5051327;28;20268;-58
2022/08/15 04:33:57;;;;;;;0.00;0.00;;;;;;;;;;5051731;28;20028;-60
2022/08/15 04:36:22;;;;;;;0.00;0.00;;;;;;;;;;5050197;28;20246;-60
2022/08/15 04:38:49;;;;;;;1.27;0.73;;;;;;;;;;5050495;28;20024;-60
2022/08/15 04:41:15;;;;;;;0.10;0.05;;;;;;;;;;5051299;28;20382;-60
2022/08/15 04:43:41;;;;;;;0.25;0.15;;;;;;;;;;5051260;28;20033;-60
2022/08/15 04:46:07;;;;;;;0.10;0.10;;;;;;;;;;5051484;28;20036;-60
2022/08/15 04:48:32;;;;;;;0.47;0.47;;;;;;;;;;5051120;28;20017;-59
2022/08/15 04:50:59;;;;;;;0.00;0.00;;;;;;;;;;5051523;28;20082;-58
2022/08/15 04:53:26;;;;;;;0.00;0.00;;;;;;;;;;5051467;28;20032;-58
2022/08/15 04:55:52;;;;;;;0.77;0.77;;;;;;;;;;5051118;28;20521;-58
2022/08/15 04:58:17;;;;;;;0.00;0.00;;;;;;;;;;5051781;28;20024;-59
2022/08/15 05:01:09;;;;;;;0.00;0.00;;;;;;;;;;5051019;28;20219;-59
2022/08/15 05:03:35;;;;;;;3.60;1.17;;;;;;;;;;5049774;28;20453;-59
2022/08/15 05:06:02;;;;;;;0.38;0.38;;;;;;;;;;5050884;28;20063;-60
2022/08/15 05:08:29;;;;;;;0.40;0.40;;;;;;;;;;5051111;28;20021;-59
2022/08/15 05:10:58;;;;;;;0.20;0.20;;;;;;;;;;5050134;28;20036;-58
2022/08/15 05:13:23;;;;;;;;;;;;;;;;;;5051119;28;20036;-58
2022/08/15 05:15:48;;;;;;;1.03;0.20;;;;;;;;;;5050591;28;19913;-60
2022/08/15 05:18:14;;;;;;;0.10;0.10;;;;;;;;;;5050826;28;20279;-58
2022/08/15 05:20:41;;;;;;;3.53;3.20;;;;;;;;;;5050254;28;20033;-58
2022/08/15 05:23:08;;;;;;;0.00;0.00;;;;;;;;;;5050563;28;20115;-59
2022/08/15 05:25:34;;;;;;;0.73;0.43;;;;;;;;;;5050437;28;20381;-60
2022/08/15 05:28:00;;;;;;;0.00;0.00;;;;;;;;;;5050951;28;20025;-59
2022/08/15 05:30:25;;;;;;;0.00;0.00;;;;;;;;;;5050954;28;20017;-58
2022/08/15 05:33:00;;;;;;;0.38;0.38;;;;;;;;;;5050251;28;20025;-58
2022/08/15 05:35:26;;;;;;;0.57;0.57;;;;;;;;;;5049748;28;20036;-59
2022/08/15 05:37:51;;;;;;;0.00;0.00;;;;;;;;;;5049998;28;20421;-60
2022/08/15 05:40:17;;;;;;;0.00;0.00;;;;;;;;;;5050592;28;20259;-60
2022/08/15 05:42:49;;;;;;;5.78;1.30;;;;;;;;;;5049804;28;20517;-58
2022/08/15 05:45:30;;;;;;;0.38;0.38;;;;;;;;;;5050196;28;20700;-60
2022/08/15 05:47:55;;;;;;;2.13;1.58;;;;;;;;;;5048986;28;20025;-59
2022/08/15 05:50:30;;;;;;;0.00;0.00;;;;;;;;;;5050120;28;20039;-59
2022/08/15 05:52:59;;;;;;;0.00;0.00;;;;;;;;;;5049865;28;20044;-59
2022/08/15 05:55:44;;;;;;;0.45;0.45;;;;;;;;;;5049423;28;20144;-60
2022/08/15 05:58:09;;;;;;;1.65;1.48;;;;;;;;;;5050155;28;20371;-58
2022/08/15 06:00:35;;;;;;;0.10;0.10;;;;;;;;;;5049681;28;20410;-59
2022/08/15 06:03:09;;;;;;;0.82;0.68;;;;;;;;;;5049300;28;20279;-61
2022/08/15 06:05:50;;;;;;;1.15;0.95;;;;;;;;;;5049131;28;20025;-60
2022/08/15 06:08:28;;;;;;;0.73;0.73;;;;;;;;;;5049017;28;20021;-60
2022/08/15 06:10:56;;;;;;;1.17;0.40;;;;;;;;;;5049389;28;20110;-58
2022/08/15 06:13:24;;;;;;;0.10;0.10;;;;;;;;;;5050137;28;21415;-59
2022/08/15 06:15:52;;;;;;;7.38;0.55;;;;;;;;;;5049202;28;20107;-59
2022/08/15 06:18:18;;;;;;;2.42;2.33;;;;;;;;;;5049808;28;20032;-58
2022/08/15 06:21:02;;;;;;;2.08;1.75;;;;;;;;;;5049156;28;20024;-59
2022/08/15 06:23:30;;;;;;;0.00;0.00;;;;;;;;;;5049994;28;20078;-59
2022/08/15 06:26:13;;;;;;;0.00;0.00;;;;;;;;;;5049391;28;20441;-58
2022/08/15 06:28:59;;;;;;;0.20;0.20;;;;;;;;;;5049350;28;20056;-59
2022/08/15 06:31:36;;;;;;;0.00;0.00;;;;;;;;;;5045460;28;20037;-58
2022/08/15 06:34:13;;;;;;;2.92;0.40;;;;;;;;;;5049243;28;20024;-58
2022/08/15 06:36:42;;;;;;;6.13;2.53;;;;;;;;;;5049021;28;20043;-58
2022/08/15 06:39:07;;;;;;;;;;;;;;;;;;5049814;28;20029;-57
2022/08/15 06:41:48;;;;;;;0.43;0.43;;;;;;;;;;5048807;28;19916;-58
2022/08/15 06:44:13;;;;;;;2.55;2.35;;;;;;;;;;5049150;28;20497;-58
2022/08/15 06:46:39;;;;;;;1.02;0.70;;;;;;;;;;5048671;28;20021;-57
2022/08/15 06:49:06;;;;;;;0.43;0.43;;;;;;;;;;5049457;28;20059;-57
2022/08/15 06:51:32;;;;;;;0.00;0.00;;;;;;;;;;5048410;28;20032;-57
2022/08/15 06:53:58;;;;;;;0.13;0.13;;;;;;;;;;5049736;28;20416;-58
2022/08/15 06:56:27;;;;;;;0.00;0.00;;;;;;;;;;5049032;28;20045;-59
2022/08/15 06:58:55;;;;;;;0.00;0.00;;;;;;;;;;5048321;28;20029;-61
2022/08/15 07:01:39;;;;;;;0.00;0.00;;;;;;;;;;5048742;28;20033;-60
2022/08/15 07:04:08;;;;;;;0.50;0.50;;;;;;;;;;5049568;28;20036;-58
2022/08/15 07:06:35;;;;;;;0.00;0.00;;;;;;;;;;5049819;28;20040;-59
2022/08/15 07:09:07;;;;;;;4.10;3.72;;;;;;;;;;5049823;28;20436;-59
2022/08/15 07:11:42;;;;;;;2.03;1.85;;;;;;;;;;5047900;28;20533;-58
2022/08/15 07:14:24;;;;;;;0.10;0.05;;;;;;;;;;5048828;28;20053;-59
2022/08/15 07:16:54;;;;;;;0.00;0.00;;;;;;;;;;5045758;28;20473;-59
2022/08/15 07:19:20;;;;;;;0.00;0.00;;;;;;;;;;5049282;28;20385;-59
2022/08/15 07:21:45;;;;;;;0.40;0.40;;;;;;;;;;5049331;28;20024;-58
2022/08/15 07:24:21;;;;;;;0.55;0.55;;;;;;;;;;5049275;28;20023;-58
2022/08/15 07:26:51;;;;;;;0.30;0.30;;;;;;;;;;5047527;28;20021;-58
2022/08/15 07:29:24;;;;;;;0.00;0.00;;;;;;;;;;5048772;28;20039;-60
2022/08/15 07:31:50;;;;;;;0.30;0.30;;;;;;;;;;5048658;28;20078;-58
2022/08/15 07:34:18;;;;;;;0.00;0.00;;;;;;;;;;5049079;28;20021;-59
2022/08/15 07:36:50;;;;;;;1.40;1.40;;;;;;;;;;5048620;28;20335;-59
2022/08/15 07:39:20;;;;;;;0.00;0.00;;;;;;;;;;5049259;28;20121;-59
2022/08/15 07:41:45;;;;;;;0.00;0.00;;;;;;;;;;5049235;28;20478;-59
2022/08/15 07:44:18;;;;;;;0.35;0.30;;;;;;;;;;5049201;28;20075;-59
2022/08/15 07:47:08;;;;;;;0.00;0.00;;;;;;;;;;5048068;28;20025;-59
2022/08/15 07:49:34;;;;;;;0.08;0.08;;;;;;;;;;5047374;28;20112;-58
2022/08/15 07:52:24;;;;;;;0.38;0.38;;;;;;;;;;5048537;28;20028;-58
2022/08/15 07:54:51;;;;;;;2.00;1.85;;;;;;;;;;5043434;28;20494;-58
2022/08/15 07:57:21;;;;;;;5.57;3.15;;;;;;;;;;5048726;28;20041;-58
2022/08/15 08:00:08;;;;;;;0.20;0.20;;;;;;;;;;5047815;28;20019;-58
2022/08/15 08:02:40;;;;;;;2.78;2.63;;;;;;;;;;5044793;28;20043;-58
2022/08/15 08:05:05;;;;;;;1.35;1.15;;;;;;;;;;5047154;28;20474;-58
2022/08/15 08:07:40;;;;;;;0.47;0.47;;;;;;;;;;5049035;28;20070;-58
2022/08/15 08:10:05;;;;;;;0.00;0.00;;;;;;;;;;5048712;28;20500;-58
2022/08/15 08:12:46;;;;;;;0.00;0.00;;;;;;;;;;5051858;28;20045;-58
2022/08/15 08:15:19;;;;;;;0.00;0.00;;;;;;;;;;5052199;28;20020;-58
2022/08/15 08:17:44;;;;;;;0.00;0.00;;;;;;;;;;5051800;28;20620;-59
2022/08/15 08:20:29;;;;;;;0.75;0.75;;;;;;;;;;5052446;28;20021;-57
2022/08/15 08:23:01;;;;;;;0.52;0.52;;;;;;;;;;5051264;28;20044;-59
2022/08/15 08:25:26;;;;;;;0.10;0.10;;;;;;;;;;5052286;28;20017;-60
2022/08/15 08:28:11;;;;;;;0.20;0.20;;;;;;;;;;5050863;28;20524;-58
2022/08/15 08:30:39;;;;;;;0.10;0.10;;;;;;;;;;5051065;28;20037;-59
2022/08/15 08:33:04;;;;;;;0.05;0.05;;;;;;;;;;5052049;28;20036;-58
2022/08/15 08:35:35;;;;;;;1.60;0.70;;;;;;;;;;5052103;28;20036;-58
2022/08/15 08:38:01;;;;;;;0.75;0.75;;;;;;;;;;5051733;28;20259;-59
2022/08/15 08:43:22;;;;;;;1.48;1.02;;;;;;;;;;5052376;28;20102;-59
2022/08/15 08:45:59;;;;;;;6.00;1.17;;;;;;;;;;5050511;28;20017;-59
2022/08/15 08:48:43;;;;;;;0.65;0.57;;;;;;;;;;5049788;28;20328;-58
2022/08/15 08:51:14;;;;;;;1.77;1.67;;;;;;;;;;5051984;28;20078;-59
2022/08/15 08:53:53;;;;;;;4.43;2.70;;;;;;;;;;5052088;28;20029;-59
2022/08/15 08:56:21;;;;;;;4.23;2.00;;;;;;;;;;5050839;28;20049;-59
2022/08/15 08:58:48;;;;;;;0.10;0.10;;;;;;;;;;5051819;28;20017;-59
2022/08/15 09:01:19;;;;;;;0.10;0.10;;;;;;;;;;5052263;28;20690;-59
2022/08/15 09:03:46;;;;;;;0.22;0.22;;;;;;;;;;5050295;28;20029;-59
2022/08/15 09:06:13;;;;;;;0.38;0.38;;;;;;;;;;5051913;28;20025;-59
2022/08/15 09:08:46;;;;;;;0.08;0.08;;;;;;;;;;5050342;28;20393;-59
2022/08/15 09:11:30;;;;;;;0.75;0.75;;;;;;;;;;5050754;28;20040;-58
2022/08/15 09:13:57;;;;;;;0.30;0.30;;;;;;;;;;5050667;28;20438;-58
2022/08/15 09:16:30;;;;;;;0.55;0.55;;;;;;;;;;5051119;28;20019;-57
2022/08/15 09:19:01;;;;;;;8.95;1.77;;;;;;;;;;5050113;28;20020;-58
2022/08/15 09:21:27;;;;;;;2.42;1.45;;;;;;;;;;5050124;28;20377;-59
2022/08/15 09:23:54;;;;;;;0.35;0.35;;;;;;;;;;5052229;28;20494;-60
2022/08/15 09:26:43;;;;;;;1.88;0.28;;;;;;;;;;5049952;28;20040;-59
2022/08/15 09:29:14;;;;;;;0.00;0.00;;;;;;;;;;5050898;28;20486;-59
2022/08/15 09:31:41;;;;;;;0.17;0.17;;;;;;;;;;5051118;28;20033;-60
2022/08/15 09:34:25;;;;;;;2.50;0.82;;;;;;;;;;5050240;28;20517;-60
2022/08/15 09:37:00;;;;;;;3.15;2.95;;;;;;;;;;5050728;28;20032;-59
2022/08/15 09:39:40;;;;;;;2.78;1.67;;;;;;;;;;5051285;28;20029;-58
2022/08/15 09:42:08;;;;;;;1.27;1.25;;;;;;;;;;5051288;28;20029;-58
2022/08/15 09:44:44;;;;;;;1.85;1.65;;;;;;;;;;5050864;28;20720;-59
2022/08/15 09:47:16;;;;;;;1.67;1.58;;;;;;;;;;5051858;28;20021;-59
2022/08/15 09:49:43;;;;;;;1.13;0.88;;;;;;;;;;5048824;28;20023;-59
2022/08/15 09:52:14;;;;;;;1.08;1.08;;;;;;;;;;5049760;28;20454;-58
2022/08/15 09:54:48;;;;;;;0.05;0.05;;;;;;;;;;5049719;28;20029;-58
2022/08/15 09:57:20;;;;;;;0.00;0.00;;;;;;;;;;5050895;28;20195;-59
2022/08/15 09:59:48;;;;;;;1.85;1.38;;;;;;;;;;5049376;28;20489;-59
2022/08/15 10:02:16;;;;;;;1.88;1.15;;;;;;;;;;5050035;28;20544;-58
2022/08/15 10:04:44;;;;;;;3.60;3.47;;;;;;;;;;5050383;28;20021;-59
2022/08/15 10:07:09;;;;;;;0.00;0.00;;;;;;;;;;5049639;28;20013;-59
2022/08/15 10:09:37;;;;;;;0.77;0.77;;;;;;;;;;5050646;28;20377;-59
2022/08/15 10:12:08;;;;;;;7.03;1.95;;;;;;;;;;5050573;28;20262;-59
2022/08/15 10:14:40;;;;;;;0.80;0.80;;;;;;;;;;5050792;28;20370;-59
2022/08/15 10:17:35;;;;;;;0.88;0.77;;;;;;;;;;5050541;28;20025;-59
2022/08/15 10:20:15;;;;;;;0.28;0.28;;;;;;;;;;5045133;28;20107;-59
2022/08/15 10:22:51;;;;;;;1.63;1.52;;;;;;;;;;5048687;28;20098;-59
2022/08/15 10:25:17;;;;;;;0.08;0.08;;;;;;;;;;5049604;28;20112;-59
2022/08/15 10:28:05;;;;;;;0.80;0.75;;;;;;;;;;5049984;28;20124;-59
2022/08/15 10:30:32;;;;;;;35.60;1.47;;;;;;;;;;5049299;28;20488;-57
2022/08/15 10:33:00;;;;;;;0.20;0.20;;;;;;;;;;5049598;28;20032;-58
2022/08/15 10:35:26;;;;;;;0.00;0.00;;;;;;;;;;5048130;28;20025;-58
2022/08/15 10:37:57;;;;;;;0.65;0.65;;;;;;;;;;5049755;28;20028;-59
2022/08/15 10:40:44;;;;;;;0.22;0.22;;;;;;;;;;5050254;28;20104;-58
2022/08/15 10:43:11;;;;;;;1.52;1.48;;;;;;;;;;5049186;28;20132;-58
2022/08/15 10:45:41;;;;;;;1.08;1.08;;;;;;;;;;5049493;28;20048;-58
2022/08/15 10:48:15;;;;;;;1.35;1.05;;;;;;;;;;5049340;28;20032;-59
2022/08/15 10:51:01;;;;;;;0.10;0.10;;;;;;;;;;5048978;28;20409;-59
2022/08/15 10:53:27;;;;;;;1.55;0.65;;;;;;;;;;5048443;28;20048;-58
2022/08/15 10:56:05;;;;;;;0.22;0.20;;;;;;;;;;5048421;28;20065;-58
2022/08/15 10:58:32;;;;;;;0.00;0.00;;;;;;;;;;5048967;28;20061;-57
2022/08/15 11:01:07;;;;;;;0.40;0.40;;;;;;;;;;5048760;28;20021;-58
2022/08/15 11:03:41;;;;;;;0.93;0.90;;;;;;;;;;5047840;28;20023;-59
2022/08/15 11:06:08;;;;;;;0.30;0.30;;;;;;;;;;5049061;28;20048;-59
2022/08/15 11:08:36;;;;;;;0.98;0.98;;;;;;;;;;5049005;28;20099;-59
2022/08/15 11:11:08;;;;;;;0.00;0.00;;;;;;;;;;5049134;28;20049;-58
2022/08/15 11:13:35;;;;;;;0.32;0.22;;;;;;;;;;5049272;28;20056;-59
2022/08/15 11:16:12;;;;;;;0.95;0.93;;;;;;;;;;5048835;28;20025;-58
2022/08/15 11:18:44;;;;;;;0.98;0.30;;;;;;;;;;5048639;28;20035;-58
2022/08/15 11:21:15;;;;;;;1.55;0.68;;;;;;;;;;5047745;28;20027;-60
2022/08/15 11:23:41;;;;;;;0.00;0.00;;;;;;;;;;5048236;28;20053;-59
2022/08/15 11:26:08;;;;;;;0.10;0.10;;;;;;;;;;5048287;28;20045;-60
2022/08/15 11:28:33;;;;;;;0.35;0.35;;;;;;;;;;5048438;28;20037;-57
2022/08/15 11:31:07;;;;;;;1.35;1.25;;;;;;;;;;5048381;28;20017;-58
2022/08/15 11:33:47;;;;;;;0.30;0.30;;;;;;;;;;5047948;28;20032;-59
2022/08/15 11:36:16;;;;;;;0.30;0.30;;;;;;;;;;5048373;28;20104;-58
2022/08/15 11:38:46;;;;;;;0.10;0.10;;;;;;;;;;5046828;28;20036;-58
2022/08/15 11:41:24;;;;;;;0.88;0.82;;;;;;;;;;5048598;28;20029;-58
2022/08/15 11:43:51;;;;;;;0.25;0.25;;;;;;;;;;5047966;28;20021;-58
2022/08/15 11:46:17;;;;;;;0.00;0.00;;;;;;;;;;5049452;28;20013;-59
2022/08/15 11:48:46;;;;;;;0.00;0.00;;;;;;;;;;5051185;28;20005;-57
2022/08/15 11:51:11;;;;;;;;;;;;;;;;;;5051866;28;20090;-58
2022/08/15 11:53:55;;;;;;;0.85;0.85;;;;;;;;;;5050973;28;19948;-58
2022/08/15 11:56:22;;;;;;;0.90;0.90;;;;;;;;;;5051335;28;20053;-58
2022/08/15 11:58:47;;;;;;;0.30;0.30;;;;;;;;;;5051137;28;20021;-59
2022/08/15 12:01:29;;;;;;;1.63;1.10;;;;;;;;;;5052043;28;20036;-58
2022/08/15 12:04:05;;;;;;;3.03;1.55;;;;;;;;;;5050910;28;20024;-58
2022/08/15 12:06:33;;;;;;;0.00;0.00;;;;;;;;;;5052424;28;20025;-60
2022/08/15 12:09:05;;;;;;;1.17;1.17;;;;;;;;;;5051675;28;20428;-59
2022/08/15 12:11:31;;;;;;;0.00;0.00;;;;;;;;;;5051964;28;20082;-58
2022/08/15 12:13:56;;;;;;;0.00;0.00;;;;;;;;;;5051241;28;20021;-57
2022/08/15 12:16:25;;;;;;;0.20;0.20;;;;;;;;;;5051794;28;20057;-58
2022/08/15 12:18:51;;;;;;;0.00;0.00;;;;;;;;;;5050933;28;20048;-59
2022/08/15 12:21:16;;;;;;;0.00;0.00;;;;;;;;;;5052030;28;20017;-58
2022/08/15 12:23:48;;;;;;;0.30;0.30;;;;;;;;;;5051884;28;20021;-58
2022/08/15 12:26:16;;;;;;;0.10;0.10;;;;;;;;;;5052717;28;20021;-59
2022/08/15 12:28:42;;;;;;;0.70;0.70;;;;;;;;;;5051779;28;20025;-59
2022/08/15 12:31:21;;;;;;;0.00;0.00;;;;;;;;;;5052505;28;20627;-59
2022/08/15 12:33:48;;;;;;;0.70;0.70;;;;;;;;;;5049233;28;20021;-58
2022/08/15 12:36:13;;;;;;;0.00;0.00;;;;;;;;;;5052570;28;20021;-58
2022/08/15 12:38:39;;;;;;;2.05;1.95;;;;;;;;;;5050830;28;20074;-59
2022/08/15 12:41:05;;;;;;;0.00;0.00;;;;;;;;;;5051511;28;20021;-59
2022/08/15 12:43:30;;;;;;;0.00;0.00;;;;;;;;;;5052120;28;20040;-58
2022/08/15 12:45:55;;;;;;;1.08;1.00;;;;;;;;;;5051465;28;20025;-59
2022/08/15 12:48:23;;;;;;;1.02;1.02;;;;;;;;;;5050652;28;20031;-58
2022/08/15 12:50:48;;;;;;;0.00;0.00;;;;;;;;;;5050129;28;20037;-58
2022/08/15 12:53:13;;;;;;;1.25;0.45;;;;;;;;;;5052134;28;21489;-57
2022/08/15 12:55:40;;;;;;;0.00;0.00;;;;;;;;;;5051337;28;20044;-59
2022/08/15 12:58:05;;;;;;;0.00;0.00;;;;;;;;;;5050827;28;20039;-57
2022/08/15 13:00:31;;;;;;;1.00;0.93;;;;;;;;;;5051444;28;20029;-58
2022/08/15 13:02:58;;;;;;;2.78;1.02;;;;;;;;;;5051127;28;20391;-58
2022/08/15 13:05:30;;;;;;;0.22;0.22;;;;;;;;;;5051463;28;20052;-58
2022/08/15 13:07:55;;;;;;;1.73;1.50;;;;;;;;;;5050722;28;20045;-58
2022/08/15 13:10:21;;;;;;;1.25;1.17;;;;;;;;;;5049771;28;20531;-58
2022/08/15 13:12:46;;;;;;;0.32;0.32;;;;;;;;;;5051063;28;20116;-57
2022/08/15 13:15:11;;;;;;;0.33;0.33;;;;;;;;;;5050300;28;20104;-57
2022/08/15 13:17:37;;;;;;;0.40;0.40;;;;;;;;;;5050882;28;20693;-58
2022/08/15 13:25:31;;;;;;;1.23;1.23;;;;;;;;;;5050528;28;20024;-57
2022/08/15 13:27:56;;;;;;;1.30;1.30;;;;;;;;;;5051083;28;20090;-57
2022/08/15 13:30:21;;;;;;;0.60;0.60;;;;;;;;;;5051258;28;20024;-58
2022/08/15 13:32:47;;;;;;;0.95;0.88;;;;;;;;;;5051725;28;20066;-58
2022/08/15 13:35:13;;;;;;;0.93;0.90;;;;;;;;;;5051494;28;20028;-59
2022/08/15 13:37:39;;;;;;;0.93;0.90;;;;;;;;;;5051277;28;20032;-58
2022/08/15 13:40:08;;;;;;;10.85;0.77;;;;;;;;;;5050465;28;20626;-58
2022/08/15 13:42:33;;;;;;;0.22;0.22;;;;;;;;;;5050737;28;20449;-59
2022/08/15 13:44:59;;;;;;;0.08;0.08;;;;;;;;;;5049045;28;20041;-59
2022/08/15 13:47:25;;;;;;;0.30;0.30;;;;;;;;;;5050754;28;20375;-58
2022/08/15 13:49:51;;;;;;;0.00;0.00;;;;;;;;;;5050363;28;20551;-58
2022/08/15 13:52:16;;;;;;;0.13;0.13;;;;;;;;;;5050875;28;20470;-59
2022/08/15 13:54:41;;;;;;;0.20;0.20;;;;;;;;;;5050532;28;20029;-57
2022/08/15 13:57:07;;;;;;;0.60;0.60;;;;;;;;;;5049927;28;20079;-59
2022/08/15 13:59:33;;;;;;;0.15;0.15;;;;;;;;;;5050268;28;20036;-58
2022/08/15 14:01:59;;;;;;;0.63;0.63;;;;;;;;;;5048383;28;20056;-58
2022/08/15 14:04:26;;;;;;;0.05;0.05;;;;;;;;;;5050312;28;20744;-57
2022/08/15 14:06:53;;;;;;;0.10;0.10;;;;;;;;;;5049718;28;20393;-58
2022/08/15 14:09:18;;;;;;;1.58;1.17;;;;;;;;;;5049034;28;20482;-58
2022/08/15 14:11:44;;;;;;;4.72;0.70;;;;;;;;;;5049883;28;20061;-57
2022/08/15 14:14:10;;;;;;;2.85;1.17;;;;;;;;;;5048407;28;20078;-58
2022/08/15 14:16:36;;;;;;;0.50;0.32;;;;;;;;;;5050051;28;20102;-58
2022/08/15 14:19:02;;;;;;;0.70;0.70;;;;;;;;;;5047175;28;20056;-58
2022/08/15 14:21:28;;;;;;;0.00;0.00;;;;;;;;;;5048754;28;20025;-58
2022/08/15 14:23:55;;;;;;;0.00;0.00;;;;;;;;;;5049368;28;20017;-59
2022/08/15 14:26:24;;;;;;;1.67;1.40;;;;;;;;;;5049092;28;20021;-57
2022/08/15 14:28:50;;;;;;;0.90;0.90;;;;;;;;;;5048969;28;20020;-58
2022/08/15 14:31:15;;;;;;;0.10;0.10;;;;;;;;;;5049778;28;20060;-58
2022/08/15 14:33:41;;;;;;;0.43;0.43;;;;;;;;;;5049526;28;20075;-58
2022/08/15 14:36:07;;;;;;;0.75;0.65;;;;;;;;;;5047136;28;20033;-58
2022/08/15 14:38:32;;;;;;;0.00;0.00;;;;;;;;;;5049068;28;20017;-57
2022/08/15 14:40:58;;;;;;;0.00;0.00;;;;;;;;;;5048974;28;20025;-58
2022/08/15 14:43:24;;;;;;;0.20;0.20;;;;;;;;;;5046937;28;20040;-58
2022/08/15 14:45:51;;;;;;;0.30;0.30;;;;;;;;;;5048714;28;20016;-58
2022/08/15 14:48:18;;;;;;;0.00;0.00;;;;;;;;;;5049410;28;20425;-58
2022/08/15 14:50:44;;;;;;;0.03;0.03;;;;;;;;;;5049593;28;20051;-58
2022/08/15 14:53:09;;;;;;;0.15;0.15;;;;;;;;;;5049020;28;20061;-57
2022/08/15 14:55:36;;;;;;;0.95;0.77;;;;;;;;;;5048884;28;20056;-58
2022/08/15 14:58:02;;;;;;;0.00;0.00;;;;;;;;;;5049091;28;20466;-58
2022/08/15 15:00:31;;;;;;;1.40;1.02;;;;;;;;;;5048972;28;20060;-57
2022/08/15 15:02:57;;;;;;;0.73;0.73;;;;;;;;;;5047538;28;20052;-58